CSN0117 KSLC-KDEN
Flight info
| Callsign | CSN0117 |
|---|---|
| Flight time | 0h 58m |
| Altitude | 24000 |
| Route | PERTY KAMPR |
| Aircraft | A320/L-SDE2E3FGHIJ1RWXY/LB1 |
Departure
| Time | 2026-05-08 04:49 |
|---|---|
| Airport | Salt Lake City International Airport (KSLC) |
Arrival
| Time | 2026-05-08 05:47 |
|---|---|
| Airport | Denver International Airport (KDEN) |
| Time | Latitude | Longitude | Altitude | Speed | Heading |
|---|---|---|---|---|---|
| 2026-05-08 04:27 | 40.78536 | -111.97761 | 4235 ft | 0 kts | 253° |
| 2026-05-08 04:40 | 40.78539 | -111.97750 | 4234 ft | 3 kts | 253° |
| 2026-05-08 04:40 | 40.78545 | -111.97724 | 4234 ft | 3 kts | 253° |
| 2026-05-08 04:40 | 40.78552 | -111.97691 | 4234 ft | 8 kts | 253° |
| 2026-05-08 04:41 | 40.78571 | -111.97660 | 4235 ft | 5 kts | 184° |
| 2026-05-08 04:41 | 40.78585 | -111.97660 | 4236 ft | 0 kts | 175° |
| 2026-05-08 04:44 | 40.78566 | -111.97658 | 4236 ft | 10 kts | 175° |
| 2026-05-08 04:44 | 40.78444 | -111.97645 | 4232 ft | 25 kts | 175° |
| 2026-05-08 04:45 | 40.78261 | -111.97625 | 4232 ft | 28 kts | 176° |
| 2026-05-08 04:45 | 40.78064 | -111.97603 | 4230 ft | 27 kts | 171° |
| 2026-05-08 04:45 | 40.77889 | -111.97538 | 4232 ft | 23 kts | 131° |
| 2026-05-08 04:45 | 40.77786 | -111.97519 | 4235 ft | 13 kts | 174° |
| 2026-05-08 04:46 | 40.77692 | -111.97508 | 4236 ft | 14 kts | 175° |
| 2026-05-08 04:46 | 40.77585 | -111.97495 | 4236 ft | 17 kts | 175° |
| 2026-05-08 04:46 | 40.77462 | -111.97465 | 4234 ft | 0 kts | 127° |
| 2026-05-08 04:46 | 40.77461 | -111.97463 | 4234 ft | 1 kts | 127° |
| 2026-05-08 04:47 | 40.77451 | -111.97434 | 4234 ft | 12 kts | 101° |
| 2026-05-08 04:47 | 40.77509 | -111.97334 | 4232 ft | 15 kts | 28° |
| 2026-05-08 04:47 | 40.77570 | -111.97327 | 4234 ft | 0 kts | 354° |
| 2026-05-08 04:47 | 40.77572 | -111.97327 | 4234 ft | 0 kts | 355° |
| 2026-05-08 04:48 | 40.77836 | -111.97358 | 4234 ft | 89 kts | 356° |
| 2026-05-08 04:49 | 40.78749 | -111.97468 | 4239 ft | 169 kts | 354° |
| 2026-05-08 04:49 | 40.80083 | -111.97637 | 4556 ft | 206 kts | 354° |
| 2026-05-08 04:49 | 40.81529 | -111.97821 | 5408 ft | 215 kts | 354° |
| 2026-05-08 04:49 | 40.83083 | -111.98018 | 6175 ft | 233 kts | 354° |
| 2026-05-08 04:50 | 40.84764 | -111.98232 | 6957 ft | 252 kts | 354° |
| 2026-05-08 04:50 | 40.86568 | -111.98461 | 7801 ft | 268 kts | 354° |
| 2026-05-08 04:50 | 40.88454 | -111.98701 | 8621 ft | 276 kts | 354° |
| 2026-05-08 04:50 | 40.90342 | -111.98940 | 9039 ft | 276 kts | 354° |
| 2026-05-08 04:51 | 40.92266 | -111.99183 | 9938 ft | 280 kts | 354° |
| 2026-05-08 04:51 | 40.94216 | -111.99430 | 11033 ft | 284 kts | 354° |
| 2026-05-08 04:51 | 40.96199 | -111.99681 | 12075 ft | 289 kts | 354° |
| 2026-05-08 04:51 | 40.98213 | -111.99936 | 13080 ft | 293 kts | 354° |
| 2026-05-08 04:52 | 41.00261 | -112.00195 | 14059 ft | 298 kts | 354° |
| 2026-05-08 04:52 | 41.02343 | -112.00289 | 14993 ft | 303 kts | 6° |
| 2026-05-08 04:52 | 41.04392 | -111.99423 | 15628 ft | 319 kts | 31° |
| 2026-05-08 04:52 | 41.06036 | -111.97429 | 16189 ft | 335 kts | 56° |
| 2026-05-08 04:53 | 41.06933 | -111.94529 | 16727 ft | 351 kts | 82° |
| 2026-05-08 04:53 | 41.06772 | -111.91262 | 17224 ft | 365 kts | 107° |
| 2026-05-08 04:53 | 41.05885 | -111.88051 | 17837 ft | 376 kts | 111° |
| 2026-05-08 04:53 | 41.04894 | -111.84815 | 18495 ft | 383 kts | 112° |
| 2026-05-08 04:54 | 41.03854 | -111.81538 | 19116 ft | 389 kts | 113° |
| 2026-05-08 04:54 | 41.02799 | -111.78223 | 19879 ft | 392 kts | 113° |
| 2026-05-08 04:54 | 41.01745 | -111.74876 | 20652 ft | 395 kts | 112° |
| 2026-05-08 04:54 | 41.00695 | -111.71508 | 21396 ft | 398 kts | 112° |
| 2026-05-08 04:55 | 40.99640 | -111.68091 | 22107 ft | 403 kts | 112° |
| 2026-05-08 04:55 | 40.98579 | -111.64639 | 22796 ft | 407 kts | 112° |
| 2026-05-08 04:55 | 40.97519 | -111.61201 | 23413 ft | 412 kts | 112° |
| 2026-05-08 04:55 | 40.96427 | -111.57674 | 23978 ft | 417 kts | 112° |
| 2026-05-08 04:56 | 40.95322 | -111.54108 | 24560 ft | 420 kts | 112° |
| 2026-05-08 04:56 | 40.94209 | -111.50518 | 24906 ft | 422 kts | 112° |
| 2026-05-08 04:56 | 40.93085 | -111.46892 | 24988 ft | 433 kts | 112° |
| 2026-05-08 04:56 | 40.91919 | -111.43139 | 25007 ft | 449 kts | 112° |
| 2026-05-08 04:57 | 40.90752 | -111.39246 | 25010 ft | 462 kts | 108° |
| 2026-05-08 04:57 | 40.90072 | -111.35043 | 25010 ft | 474 kts | 99° |
| 2026-05-08 04:57 | 40.89559 | -111.30696 | 25007 ft | 483 kts | 98° |
| 2026-05-08 04:57 | 40.89052 | -111.26278 | 25007 ft | 489 kts | 98° |
| 2026-05-08 04:58 | 40.88551 | -111.21872 | 25011 ft | 494 kts | 98° |
| 2026-05-08 04:58 | 40.88038 | -111.17368 | 25007 ft | 497 kts | 98° |
| 2026-05-08 04:58 | 40.87514 | -111.12837 | 25012 ft | 499 kts | 98° |
| 2026-05-08 04:58 | 40.86982 | -111.08296 | 25009 ft | 501 kts | 99° |
| 2026-05-08 04:59 | 40.86444 | -111.03751 | 25002 ft | 501 kts | 99° |
| 2026-05-08 04:59 | 40.85903 | -110.99200 | 25009 ft | 502 kts | 99° |
| 2026-05-08 04:59 | 40.85360 | -110.94642 | 25010 ft | 502 kts | 99° |
| 2026-05-08 04:59 | 40.84814 | -110.90086 | 25005 ft | 503 kts | 99° |
| 2026-05-08 05:00 | 40.84265 | -110.85527 | 25009 ft | 503 kts | 99° |
| 2026-05-08 05:00 | 40.83716 | -110.80965 | 25010 ft | 503 kts | 99° |
| 2026-05-08 05:00 | 40.83167 | -110.76405 | 25010 ft | 503 kts | 99° |
| 2026-05-08 05:00 | 40.82617 | -110.71845 | 25010 ft | 503 kts | 99° |
| 2026-05-08 05:01 | 40.82072 | -110.67346 | 25008 ft | 503 kts | 99° |
| 2026-05-08 05:01 | 40.81517 | -110.62790 | 25004 ft | 503 kts | 99° |
| 2026-05-08 05:01 | 40.80965 | -110.58243 | 25012 ft | 498 kts | 99° |
| 2026-05-08 05:01 | 40.80433 | -110.53847 | 25006 ft | 470 kts | 99° |
| 2026-05-08 05:02 | 40.79928 | -110.49710 | 25013 ft | 445 kts | 99° |
| 2026-05-08 05:02 | 40.79446 | -110.45788 | 25003 ft | 424 kts | 99° |
| 2026-05-08 05:02 | 40.78970 | -110.41952 | 25005 ft | 424 kts | 99° |
| 2026-05-08 05:02 | 40.78491 | -110.38111 | 25008 ft | 424 kts | 99° |
| 2026-05-08 05:03 | 40.78013 | -110.34278 | 25013 ft | 423 kts | 99° |
| 2026-05-08 05:03 | 40.77533 | -110.30453 | 25003 ft | 422 kts | 99° |
| 2026-05-08 05:03 | 40.77059 | -110.26683 | 25008 ft | 422 kts | 99° |
| 2026-05-08 05:03 | 40.76580 | -110.22860 | 25003 ft | 422 kts | 99° |
| 2026-05-08 05:04 | 40.76101 | -110.19047 | 25013 ft | 420 kts | 99° |
| 2026-05-08 05:04 | 40.75622 | -110.15237 | 25010 ft | 422 kts | 99° |
| 2026-05-08 05:04 | 40.75140 | -110.11417 | 24998 ft | 423 kts | 99° |
| 2026-05-08 05:04 | 40.74658 | -110.07598 | 25018 ft | 422 kts | 99° |
| 2026-05-08 05:05 | 40.74189 | -110.03780 | 25018 ft | 422 kts | 98° |
| 2026-05-08 05:05 | 40.73830 | -109.99950 | 25024 ft | 420 kts | 96° |
| 2026-05-08 05:05 | 40.73569 | -109.96105 | 25018 ft | 422 kts | 94° |
| 2026-05-08 05:05 | 40.73361 | -109.92288 | 25008 ft | 423 kts | 94° |
| 2026-05-08 05:06 | 40.73162 | -109.88431 | 25015 ft | 423 kts | 94° |
| 2026-05-08 05:06 | 40.72949 | -109.84548 | 25010 ft | 431 kts | 94° |
| 2026-05-08 05:06 | 40.72707 | -109.80541 | 25005 ft | 446 kts | 95° |
| 2026-05-08 05:06 | 40.72434 | -109.76407 | 25003 ft | 459 kts | 95° |
| 2026-05-08 05:07 | 40.72138 | -109.72175 | 25010 ft | 469 kts | 95° |
| 2026-05-08 05:07 | 40.71828 | -109.67853 | 25007 ft | 478 kts | 95° |
| 2026-05-08 05:07 | 40.71514 | -109.63463 | 25011 ft | 485 kts | 95° |
| 2026-05-08 05:07 | 40.71199 | -109.59011 | 25002 ft | 491 kts | 95° |
| 2026-05-08 05:08 | 40.70885 | -109.54513 | 25011 ft | 495 kts | 95° |
| 2026-05-08 05:08 | 40.70569 | -109.49984 | 25008 ft | 498 kts | 95° |
| 2026-05-08 05:08 | 40.70250 | -109.45435 | 25011 ft | 499 kts | 95° |
| 2026-05-08 05:08 | 40.69932 | -109.40935 | 25002 ft | 501 kts | 95° |
| 2026-05-08 05:09 | 40.69605 | -109.36362 | 25009 ft | 502 kts | 95° |
| 2026-05-08 05:09 | 40.69274 | -109.31790 | 25012 ft | 502 kts | 95° |
| 2026-05-08 05:09 | 40.68938 | -109.27209 | 25012 ft | 502 kts | 95° |
| 2026-05-08 05:09 | 40.68601 | -109.22623 | 25012 ft | 503 kts | 95° |
| 2026-05-08 05:10 | 40.68268 | -109.18041 | 25008 ft | 503 kts | 95° |
| 2026-05-08 05:10 | 40.67597 | -109.08869 | 25002 ft | 503 kts | 96° |
| 2026-05-08 05:10 | 40.67253 | -109.04289 | 25012 ft | 503 kts | 95° |
| 2026-05-08 05:11 | 40.66921 | -108.99702 | 25000 ft | 503 kts | 95° |
| 2026-05-08 05:11 | 40.66602 | -108.95118 | 25004 ft | 503 kts | 95° |
| 2026-05-08 05:11 | 40.66290 | -108.90528 | 25007 ft | 503 kts | 95° |
| 2026-05-08 05:11 | 40.65976 | -108.85940 | 25011 ft | 503 kts | 95° |
| 2026-05-08 05:12 | 40.65658 | -108.81351 | 25012 ft | 503 kts | 95° |
| 2026-05-08 05:12 | 40.65343 | -108.76831 | 25013 ft | 503 kts | 95° |
| 2026-05-08 05:12 | 40.65017 | -108.72245 | 25012 ft | 503 kts | 95° |
| 2026-05-08 05:12 | 40.64688 | -108.67663 | 25006 ft | 503 kts | 95° |
| 2026-05-08 05:13 | 40.64355 | -108.63076 | 25007 ft | 503 kts | 95° |
| 2026-05-08 05:13 | 40.64022 | -108.58493 | 25007 ft | 503 kts | 95° |
| 2026-05-08 05:13 | 40.63686 | -108.53907 | 25012 ft | 503 kts | 95° |
| 2026-05-08 05:13 | 40.63349 | -108.49329 | 25006 ft | 503 kts | 95° |
| 2026-05-08 05:14 | 40.63013 | -108.44747 | 25012 ft | 503 kts | 95° |
| 2026-05-08 05:14 | 40.62677 | -108.40162 | 25012 ft | 503 kts | 95° |
| 2026-05-08 05:14 | 40.62339 | -108.35583 | 25010 ft | 503 kts | 95° |
| 2026-05-08 05:14 | 40.61998 | -108.31002 | 25012 ft | 503 kts | 96° |
| 2026-05-08 05:15 | 40.61654 | -108.26419 | 25005 ft | 503 kts | 96° |
| 2026-05-08 05:15 | 40.61313 | -108.21902 | 25012 ft | 503 kts | 96° |
| 2026-05-08 05:15 | 40.60966 | -108.17321 | 25012 ft | 503 kts | 96° |
| 2026-05-08 05:15 | 40.60616 | -108.12746 | 25002 ft | 503 kts | 96° |
| 2026-05-08 05:16 | 40.60263 | -108.08165 | 25012 ft | 503 kts | 96° |
| 2026-05-08 05:16 | 40.59909 | -108.03588 | 25001 ft | 503 kts | 96° |
| 2026-05-08 05:16 | 40.59553 | -107.99009 | 25012 ft | 503 kts | 96° |
| 2026-05-08 05:16 | 40.59194 | -107.94437 | 25012 ft | 503 kts | 96° |
| 2026-05-08 05:17 | 40.58832 | -107.89862 | 25012 ft | 503 kts | 96° |
| 2026-05-08 05:17 | 40.58470 | -107.85285 | 25013 ft | 503 kts | 96° |
| 2026-05-08 05:17 | 40.58107 | -107.80708 | 25012 ft | 503 kts | 96° |
| 2026-05-08 05:17 | 40.57750 | -107.76193 | 25004 ft | 503 kts | 96° |
| 2026-05-08 05:18 | 40.57387 | -107.71623 | 25005 ft | 503 kts | 96° |
| 2026-05-08 05:18 | 40.57022 | -107.67048 | 25012 ft | 503 kts | 96° |
| 2026-05-08 05:18 | 40.56654 | -107.62472 | 25006 ft | 503 kts | 96° |
| 2026-05-08 05:18 | 40.56284 | -107.57899 | 25012 ft | 503 kts | 96° |
| 2026-05-08 05:19 | 40.55910 | -107.53327 | 25012 ft | 503 kts | 96° |
| 2026-05-08 05:19 | 40.55533 | -107.48752 | 25007 ft | 503 kts | 96° |
| 2026-05-08 05:19 | 40.55154 | -107.44189 | 25012 ft | 503 kts | 96° |
| 2026-05-08 05:19 | 40.54770 | -107.39613 | 25008 ft | 503 kts | 96° |
| 2026-05-08 05:20 | 40.54385 | -107.35044 | 25007 ft | 503 kts | 96° |
| 2026-05-08 05:20 | 40.54002 | -107.30476 | 25012 ft | 503 kts | 96° |
| 2026-05-08 05:20 | 40.53619 | -107.25905 | 25012 ft | 503 kts | 96° |
| 2026-05-08 05:20 | 40.53234 | -107.21335 | 25012 ft | 503 kts | 96° |
| 2026-05-08 05:21 | 40.52847 | -107.16770 | 25012 ft | 503 kts | 96° |
| 2026-05-08 05:21 | 40.52459 | -107.12202 | 25012 ft | 503 kts | 96° |
| 2026-05-08 05:21 | 40.52067 | -107.07630 | 25012 ft | 503 kts | 96° |
| 2026-05-08 05:21 | 40.51681 | -107.03127 | 25012 ft | 503 kts | 96° |
| 2026-05-08 05:22 | 40.51289 | -106.98563 | 25013 ft | 503 kts | 96° |
| 2026-05-08 05:22 | 40.50894 | -106.93993 | 25004 ft | 503 kts | 96° |
| 2026-05-08 05:22 | 40.50496 | -106.89429 | 25012 ft | 503 kts | 96° |
| 2026-05-08 05:22 | 40.50093 | -106.84867 | 25010 ft | 503 kts | 96° |
| 2026-05-08 05:23 | 40.49690 | -106.80305 | 25012 ft | 503 kts | 96° |
| 2026-05-08 05:23 | 40.49285 | -106.75740 | 25011 ft | 503 kts | 97° |
| 2026-05-08 05:23 | 40.48878 | -106.71177 | 25006 ft | 503 kts | 97° |
| 2026-05-08 05:23 | 40.48469 | -106.66612 | 24982 ft | 503 kts | 97° |
| 2026-05-08 05:24 | 40.48061 | -106.62093 | 24753 ft | 491 kts | 97° |
| 2026-05-08 05:24 | 40.47668 | -106.57746 | 24626 ft | 466 kts | 97° |
| 2026-05-08 05:24 | 40.47296 | -106.53629 | 24516 ft | 442 kts | 97° |
| 2026-05-08 05:24 | 40.46941 | -106.49711 | 24369 ft | 422 kts | 97° |
| 2026-05-08 05:25 | 40.46604 | -106.45991 | 23977 ft | 411 kts | 97° |
| 2026-05-08 05:25 | 40.46267 | -106.42294 | 23429 ft | 406 kts | 97° |
| 2026-05-08 05:25 | 40.45932 | -106.38636 | 22845 ft | 402 kts | 97° |
| 2026-05-08 05:25 | 40.45599 | -106.35010 | 22258 ft | 398 kts | 97° |
| 2026-05-08 05:26 | 40.45264 | -106.31410 | 21671 ft | 395 kts | 97° |
| 2026-05-08 05:26 | 40.44931 | -106.27848 | 21101 ft | 392 kts | 97° |
| 2026-05-08 05:26 | 40.44599 | -106.24314 | 20532 ft | 388 kts | 97° |
| 2026-05-08 05:26 | 40.44274 | -106.20812 | 19967 ft | 385 kts | 97° |
| 2026-05-08 05:27 | 40.43954 | -106.17340 | 19410 ft | 381 kts | 97° |
| 2026-05-08 05:27 | 40.43636 | -106.13944 | 19063 ft | 380 kts | 97° |
| 2026-05-08 05:27 | 40.43310 | -106.10498 | 18990 ft | 380 kts | 97° |
| 2026-05-08 05:27 | 40.42981 | -106.07053 | 19009 ft | 381 kts | 97° |
| 2026-05-08 05:28 | 40.42651 | -106.03603 | 19009 ft | 381 kts | 97° |
| 2026-05-08 05:28 | 40.42321 | -106.00152 | 19009 ft | 382 kts | 97° |
| 2026-05-08 05:28 | 40.41990 | -105.96689 | 19009 ft | 384 kts | 97° |
| 2026-05-08 05:28 | 40.41657 | -105.93217 | 19009 ft | 384 kts | 97° |
| 2026-05-08 05:29 | 40.41326 | -105.89797 | 19009 ft | 375 kts | 97° |
| 2026-05-08 05:29 | 40.40999 | -105.86412 | 19009 ft | 373 kts | 97° |
| 2026-05-08 05:29 | 40.40677 | -105.83087 | 19010 ft | 372 kts | 97° |
| 2026-05-08 05:29 | 40.40349 | -105.79714 | 19009 ft | 374 kts | 97° |
| 2026-05-08 05:30 | 40.40020 | -105.76328 | 19009 ft | 374 kts | 97° |
| 2026-05-08 05:30 | 40.39689 | -105.72951 | 19009 ft | 373 kts | 97° |
| 2026-05-08 05:30 | 40.39357 | -105.69574 | 19009 ft | 374 kts | 97° |
| 2026-05-08 05:30 | 40.39023 | -105.66188 | 19009 ft | 373 kts | 97° |
| 2026-05-08 05:31 | 40.38691 | -105.62817 | 19009 ft | 372 kts | 97° |
| 2026-05-08 05:31 | 40.38289 | -105.59472 | 19010 ft | 371 kts | 100° |
| 2026-05-08 05:31 | 40.37791 | -105.56150 | 19009 ft | 371 kts | 102° |
| 2026-05-08 05:31 | 40.37239 | -105.52852 | 19009 ft | 369 kts | 103° |
| 2026-05-08 05:32 | 40.36679 | -105.49614 | 19009 ft | 369 kts | 103° |
| 2026-05-08 05:32 | 40.36114 | -105.46331 | 19009 ft | 369 kts | 102° |
| 2026-05-08 05:32 | 40.35559 | -105.43038 | 19008 ft | 370 kts | 102° |
| 2026-05-08 05:32 | 40.35014 | -105.39739 | 19008 ft | 371 kts | 103° |
| 2026-05-08 05:33 | 40.34178 | -105.36558 | 19009 ft | 369 kts | 116° |
| 2026-05-08 05:33 | 40.32823 | -105.33719 | 18804 ft | 365 kts | 127° |
| 2026-05-08 05:33 | 40.31280 | -105.31096 | 18275 ft | 362 kts | 128° |
| 2026-05-08 05:33 | 40.29739 | -105.28502 | 17797 ft | 359 kts | 128° |
| 2026-05-08 05:34 | 40.28212 | -105.25936 | 17304 ft | 355 kts | 128° |
| 2026-05-08 05:34 | 40.26718 | -105.23422 | 17029 ft | 355 kts | 128° |
| 2026-05-08 05:34 | 40.25201 | -105.20871 | 17000 ft | 355 kts | 128° |
| 2026-05-08 05:34 | 40.23687 | -105.18326 | 17009 ft | 355 kts | 128° |
| 2026-05-08 05:35 | 40.22172 | -105.15777 | 17009 ft | 354 kts | 128° |
| 2026-05-08 05:35 | 40.20695 | -105.13292 | 17008 ft | 337 kts | 128° |
| 2026-05-08 05:35 | 40.19278 | -105.10913 | 17010 ft | 329 kts | 128° |
| 2026-05-08 05:35 | 40.17876 | -105.08557 | 16898 ft | 327 kts | 128° |
| 2026-05-08 05:36 | 40.16482 | -105.06215 | 16499 ft | 325 kts | 128° |
| 2026-05-08 05:36 | 40.15098 | -105.03887 | 16095 ft | 323 kts | 128° |
| 2026-05-08 05:36 | 40.13612 | -105.01701 | 15707 ft | 321 kts | 136° |
| 2026-05-08 05:36 | 40.12048 | -104.99687 | 15319 ft | 319 kts | 135° |
| 2026-05-08 05:37 | 40.10473 | -104.97654 | 14930 ft | 317 kts | 135° |
| 2026-05-08 05:37 | 40.08908 | -104.95632 | 14541 ft | 316 kts | 135° |
| 2026-05-08 05:37 | 40.07353 | -104.93626 | 14156 ft | 314 kts | 135° |
| 2026-05-08 05:37 | 40.05801 | -104.91630 | 13771 ft | 312 kts | 136° |
| 2026-05-08 05:38 | 40.04259 | -104.89653 | 13384 ft | 310 kts | 136° |
| 2026-05-08 05:38 | 40.02724 | -104.87685 | 12995 ft | 308 kts | 136° |
| 2026-05-08 05:38 | 40.01196 | -104.85723 | 12465 ft | 311 kts | 135° |
| 2026-05-08 05:38 | 39.99634 | -104.83717 | 11691 ft | 320 kts | 136° |
| 2026-05-08 05:39 | 39.97856 | -104.81925 | 10864 ft | 328 kts | 151° |
| 2026-05-08 05:39 | 39.95756 | -104.80817 | 9989 ft | 335 kts | 166° |
| 2026-05-08 05:39 | 39.93430 | -104.80503 | 9245 ft | 336 kts | 182° |
| 2026-05-08 05:39 | 39.91143 | -104.80592 | 9028 ft | 321 kts | 181° |
| 2026-05-08 05:40 | 39.88971 | -104.80650 | 8928 ft | 303 kts | 181° |
| 2026-05-08 05:40 | 39.86927 | -104.80694 | 8944 ft | 290 kts | 181° |
| 2026-05-08 05:40 | 39.84910 | -104.80743 | 8946 ft | 290 kts | 181° |
| 2026-05-08 05:40 | 39.82952 | -104.80790 | 8947 ft | 272 kts | 181° |
| 2026-05-08 05:41 | 39.81119 | -104.80835 | 8947 ft | 255 kts | 181° |
| 2026-05-08 05:41 | 39.79427 | -104.80877 | 8947 ft | 239 kts | 181° |
| 2026-05-08 05:41 | 39.77823 | -104.80913 | 8947 ft | 222 kts | 181° |
| 2026-05-08 05:41 | 39.76330 | -104.80930 | 8948 ft | 209 kts | 181° |
| 2026-05-08 05:42 | 39.74791 | -104.80943 | 8947 ft | 237 kts | 181° |
| 2026-05-08 05:42 | 39.73100 | -104.80954 | 8944 ft | 244 kts | 181° |
| 2026-05-08 05:42 | 39.71401 | -104.80964 | 8946 ft | 244 kts | 181° |
| 2026-05-08 05:42 | 39.69700 | -104.80971 | 8946 ft | 244 kts | 179° |
| 2026-05-08 05:43 | 39.68065 | -104.80464 | 8951 ft | 245 kts | 150° |
| 2026-05-08 05:43 | 39.66856 | -104.78940 | 8947 ft | 245 kts | 119° |
| 2026-05-08 05:43 | 39.66413 | -104.76855 | 8943 ft | 246 kts | 92° |
| 2026-05-08 05:43 | 39.66432 | -104.74632 | 8944 ft | 246 kts | 83° |
| 2026-05-08 05:44 | 39.67031 | -104.72583 | 8945 ft | 246 kts | 52° |
| 2026-05-08 05:44 | 39.68327 | -104.71168 | 8942 ft | 245 kts | 30° |
| 2026-05-08 05:44 | 39.69818 | -104.70085 | 8944 ft | 245 kts | 27° |
| 2026-05-08 05:44 | 39.71326 | -104.69049 | 8894 ft | 245 kts | 27° |
| 2026-05-08 05:45 | 39.72850 | -104.68009 | 8239 ft | 251 kts | 27° |
| 2026-05-08 05:45 | 39.74417 | -104.66943 | 7362 ft | 255 kts | 27° |
| 2026-05-08 05:45 | 39.76032 | -104.66172 | 6858 ft | 242 kts | 6° |
| 2026-05-08 05:45 | 39.77650 | -104.66119 | 6516 ft | 223 kts | 360° |
| 2026-05-08 05:46 | 39.79121 | -104.66101 | 6214 ft | 201 kts | 360° |
| 2026-05-08 05:46 | 39.80437 | -104.66084 | 5962 ft | 182 kts | 360° |
| 2026-05-08 05:46 | 39.81605 | -104.66069 | 5788 ft | 158 kts | 360° |
| 2026-05-08 05:46 | 39.82667 | -104.66057 | 5516 ft | 147 kts | 0° |
| 2026-05-08 05:47 | 39.83602 | -104.66052 | 5413 ft | 108 kts | 0° |
| 2026-05-08 05:47 | 39.84198 | -104.66043 | 5423 ft | 72 kts | 1° |
| 2026-05-08 05:47 | 39.84654 | -104.66028 | 5410 ft | 61 kts | 347° |
| 2026-05-08 05:47 | 39.84911 | -104.66160 | 5399 ft | 0 kts | 329° |
| 2026-05-08 05:49 | 39.84925 | -104.66170 | 5398 ft | 10 kts | 332° |
| 2026-05-08 05:49 | 39.85019 | -104.66228 | 5400 ft | 17 kts | 338° |
| 2026-05-08 05:49 | 39.85122 | -104.66239 | 5395 ft | 13 kts | 359° |
| 2026-05-08 05:50 | 39.85208 | -104.66242 | 5396 ft | 8 kts | 2° |
| 2026-05-08 05:50 | 39.85263 | -104.66239 | 5394 ft | 8 kts | 2° |
| 2026-05-08 05:50 | 39.85318 | -104.66239 | 5394 ft | 11 kts | 358° |
| 2026-05-08 05:50 | 39.85396 | -104.66239 | 5394 ft | 12 kts | 360° |
| 2026-05-08 05:51 | 39.85519 | -104.66237 | 5395 ft | 22 kts | 1° |
| 2026-05-08 05:51 | 39.85585 | -104.66300 | 5391 ft | 2 kts | 277° |
| 2026-05-08 05:51 | 39.85584 | -104.66361 | 5396 ft | 18 kts | 268° |
| 2026-05-08 05:51 | 39.85581 | -104.66524 | 5396 ft | 17 kts | 268° |
| 2026-05-08 05:52 | 39.85553 | -104.66680 | 5391 ft | 16 kts | 187° |
| 2026-05-08 05:52 | 39.85475 | -104.66706 | 5393 ft | 0 kts | 182° |